METAR AND TAF INFORMATION
METAR FOR VOBL
ADDS - METARS form results

(0442 UTC 26 February 2020)
Data provider http://aviationweather.gov/metar/data/
 
METAR text: VOBL 260430Z 15006KT 4000 HZ FEW010 24/18 Q1018 NOSIG
Conditions at: VOBL (BENGALURU , IN) observed 0430 UTC 26 February 2020
Temperature: 24.0°C (75°F)
Dewpoint: 18.0°C (64°F) [RH = 69%]
Pressure (altimeter): 30.06 inches Hg (1018.0 mb)
Winds: from the SSE (150 degrees) at 7 MPH (6 knots; 3.1 m/s)
Visibility: 2.49 miles (4.01 km)
Ceiling: at least 12,000 feet AGL
Clouds: few clouds at 1000 feet AGL
Weather: HZ  (haze)

METAR text: VOBL 260400Z 13007KT 4000 BR SCT008 23/19 Q1018 NOSIG
Conditions at: VOBL (BENGALURU , IN) observed 0400 UTC 26 February 2020
Temperature: 23.0°C (73°F)
Dewpoint: 19.0°C (66°F) [RH = 78%]
Pressure (altimeter): 30.06 inches Hg (1018.0 mb)
Winds: from the SE (130 degrees) at 8 MPH (7 knots; 3.6 m/s)
Visibility: 2.49 miles (4.01 km)
Ceiling: at least 12,000 feet AGL
Clouds: scattered clouds at 800 feet AGL
Weather: BR  (mist)

Forecast for: VOBL (BENGALURU , IN)
Text: TAF VOBL 260200Z 2603/2612 11010KT 4000 BR FEW008
Forecast period: 0300 to 0400 UTC 26 February 2020
Forecast type: FROM: standard forecast or significant change
Winds: from the ESE (110 degrees) at 12 MPH (10 knots; 5.1 m/s)
Visibility: 2.49 miles (4.01 km)
Ceiling: at least 12,000 feet AGL
Clouds: few clouds at 800 feet AGL
Weather: BR  (mist)
Text: BECMG 2604/2605 6000 FEW015
Forecast period: 0400 to 1200 UTC 26 February 2020
Forecast type: BECOMING: Conditions expected to become as follows by 0500 UTC 26 February 2020
Winds: from the ESE (110 degrees) at 12 MPH (10 knots; 5.1 m/s)
Visibility: 4 miles (6 km)
Ceiling: at least 12,000 feet AGL
Clouds: few clouds at 1500 feet AGL
Weather: BR  (mist)

 AIRPORT MAP

 RUNWAY INFORMATION
Runway 09 Runway length 13123 ft Runway width 148 ft
Runway elevation 3001 ft Runway displaced threshold 0 ft Runway heading 92
Runway 27 Runway length 13123 ft Runway width 148 ft
Runway elevation 2917 ft Runway displaced threshold 0 ft Runway heading 272

 AIRPORT FREQUENCIES
Type APP Name Frequency 121.25 MHZ
Type ATIS Name Frequency 128.675 MHZ
Type DELIVERY Name Frequency 121.82 MHZ
Type SMC Name Frequency 121.65 MHZ
Type TOWER Name Frequency 124.35 MHZ

 AIRPORT NEAR NAVIGATION AIDS



Powered by Virtual Airlines Manager [v2.6.2]